Αρχική σελίδα
METAR-TAF:

METAR-TAF

Αεροδρόμια :

Χαράρε, Ζιμπάμπουε

γεωγραφικό πλάτος: 17-55S, γεωγραφικό μήκος: 031-08E, υψόμετρο: 1479 μ

Παρών καιρός

Η αναφορά έγινε 2 ώρες και 8 λεπτά πριν, στις 22:00 UTC
Άνεμος 8 kt από Α/BA
Θερμοκρασία 13°C
Υγρασία 47%
Πίεση 1026 hPa
Ορατότητα 10 χλμ και άνω
Δεν υπάρχουν νέφη με βάση κάτω από τα 1500 μ. και δεν υπάρχουν νέφη σωρειτομελανίτες.

METAR: FVHA 162200Z 06008KT CAVOK 13/02 Q1026 NOSIG

Χρόνος: 02:08 (00:08 UTC)

Πρόγνωση Καιρού

Η αναφορά έγινε 2 ώρες και 8 λεπτά πριν, στις 22:00 UTC
Η πρόγνωση ισχύει από τις 17 στις 00 UTC έως τις 18 στις 06 UTC
Άνεμος 8 kt από BA
Ορατότητα 10 χλμ και άνω
Δεν υπάρχουν νέφη με βάση κάτω από τα 1500 μ. και δεν υπάρχουν νέφη σωρειτομελανίτες.

TAF: FVHA 162200Z 1700/1806 05008KT CAVOK

Μετεωρολογικές αναφορές και προγνώσεις για περισσότερα από 4000 αεροδρόμια (δελτία METAR και TAF).

Οι διαθέσιμοι σταθμοί απεικονίζονται στο χάρτη με κίτρινες και κόκκινες κουκκίδες.

Μετακινήστε το ποντίκι πάνω από τις κουκκίδες για να δείτε το όνομα του σταθμού.

Στη συνέχεια, κάντε κλικ για να δείτε τις μετεωρολογικές αναφορές και τις προγνώσεις καιρού.

Για να αλλάξετε το χάρτη: κάντε κλικ στα πράσινα κουμπιά με τον μαύρο σταυρό για να ζουμάρετε, στο πράσινο κουμπί με την παύλα για να αφαιρέσετε το ζουμ ή στα πράσινα βέλη για να αντιπαραβάλλετε χάρτες.


METAR-TAF: